sensor_id;sensor_type;location;lat;lon;timestamp;P1;durP1;ratioP1;P2;durP2;ratioP2
55114;SDS011;41010;53.252;5.786;2023-01-13T00:00:04;51.80;;;7.65;;
55114;SDS011;41010;53.252;5.786;2023-01-13T00:02:34;47.05;;;5.45;;
55114;SDS011;41010;53.252;5.786;2023-01-13T00:05:01;41.50;;;6.47;;
55114;SDS011;41010;53.252;5.786;2023-01-13T00:07:29;44.25;;;4.88;;
55114;SDS011;41010;53.252;5.786;2023-01-13T00:09:56;41.50;;;6.93;;
55114;SDS011;41010;53.252;5.786;2023-01-13T00:12:23;49.03;;;6.20;;
55114;SDS011;41010;53.252;5.786;2023-01-13T00:14:50;47.92;;;7.07;;
55114;SDS011;41010;53.252;5.786;2023-01-13T00:17:18;48.72;;;6.95;;
55114;SDS011;41010;53.252;5.786;2023-01-13T00:19:46;48.25;;;6.15;;
55114;SDS011;41010;53.252;5.786;2023-01-13T00:22:13;46.35;;;5.75;;
55114;SDS011;41010;53.252;5.786;2023-01-13T00:24:41;62.58;;;7.90;;
55114;SDS011;41010;53.252;5.786;2023-01-13T00:27:08;38.50;;;6.40;;
55114;SDS011;41010;53.252;5.786;2023-01-13T00:29:35;46.85;;;6.07;;
55114;SDS011;41010;53.252;5.786;2023-01-13T00:32:03;44.72;;;5.57;;
55114;SDS011;41010;53.252;5.786;2023-01-13T00:34:30;48.60;;;6.40;;
55114;SDS011;41010;53.252;5.786;2023-01-13T00:36:58;40.85;;;6.18;;
55114;SDS011;41010;53.252;5.786;2023-01-13T00:39:26;47.88;;;6.95;;
55114;SDS011;41010;53.252;5.786;2023-01-13T00:41:53;41.67;;;6.28;;
55114;SDS011;41010;53.252;5.786;2023-01-13T00:44:38;40.20;;;5.88;;
55114;SDS011;41010;53.252;5.786;2023-01-13T00:47:05;44.55;;;6.60;;
55114;SDS011;41010;53.252;5.786;2023-01-13T00:49:32;47.38;;;6.22;;
55114;SDS011;41010;53.252;5.786;2023-01-13T00:52:01;59.45;;;7.22;;
55114;SDS011;41010;53.252;5.786;2023-01-13T00:54:28;55.45;;;7.47;;
55114;SDS011;41010;53.252;5.786;2023-01-13T00:56:55;46.13;;;7.45;;
55114;SDS011;41010;53.252;5.786;2023-01-13T00:59:22;49.85;;;7.20;;
55114;SDS011;41010;53.252;5.786;2023-01-13T01:01:50;40.22;;;6.53;;
55114;SDS011;41010;53.252;5.786;2023-01-13T01:04:17;38.10;;;5.72;;
55114;SDS011;41010;53.252;5.786;2023-01-13T01:06:44;48.60;;;7.00;;
55114;SDS011;41010;53.252;5.786;2023-01-13T01:09:13;45.72;;;5.57;;
55114;SDS011;41010;53.252;5.786;2023-01-13T01:11:41;48.35;;;6.00;;
55114;SDS011;41010;53.252;5.786;2023-01-13T01:14:08;50.92;;;7.15;;
55114;SDS011;41010;53.252;5.786;2023-01-13T01:16:36;44.20;;;6.30;;
55114;SDS011;41010;53.252;5.786;2023-01-13T01:19:04;58.13;;;6.80;;
55114;SDS011;41010;53.252;5.786;2023-01-13T01:21:31;55.75;;;7.75;;
55114;SDS011;41010;53.252;5.786;2023-01-13T01:23:59;57.03;;;7.68;;
55114;SDS011;41010;53.252;5.786;2023-01-13T01:26:28;46.45;;;6.63;;
55114;SDS011;41010;53.252;5.786;2023-01-13T01:28:56;41.63;;;5.82;;
55114;SDS011;41010;53.252;5.786;2023-01-13T01:31:26;46.35;;;6.90;;
55114;SDS011;41010;53.252;5.786;2023-01-13T01:33:55;42.78;;;6.38;;
55114;SDS011;41010;53.252;5.786;2023-01-13T01:36:23;45.05;;;5.65;;
55114;SDS011;41010;53.252;5.786;2023-01-13T01:38:51;43.58;;;5.82;;
55114;SDS011;41010;53.252;5.786;2023-01-13T01:41:20;53.30;;;6.13;;
55114;SDS011;41010;53.252;5.786;2023-01-13T01:43:50;55.97;;;6.47;;
55114;SDS011;41010;53.252;5.786;2023-01-13T01:46:24;45.63;;;6.65;;
55114;SDS011;41010;53.252;5.786;2023-01-13T01:48:52;48.83;;;5.82;;
55114;SDS011;41010;53.252;5.786;2023-01-13T01:51:19;43.42;;;7.53;;
55114;SDS011;41010;53.252;5.786;2023-01-13T01:53:47;52.30;;;6.13;;
55114;SDS011;41010;53.252;5.786;2023-01-13T01:56:14;48.80;;;7.03;;
55114;SDS011;41010;53.252;5.786;2023-01-13T01:58:43;45.92;;;6.40;;
55114;SDS011;41010;53.252;5.786;2023-01-13T02:01:13;43.15;;;6.78;;
55114;SDS011;41010;53.252;5.786;2023-01-13T02:03:42;47.60;;;5.78;;
55114;SDS011;41010;53.252;5.786;2023-01-13T02:06:11;45.75;;;6.20;;
55114;SDS011;41010;53.252;5.786;2023-01-13T02:08:38;35.97;;;5.32;;
55114;SDS011;41010;53.252;5.786;2023-01-13T02:11:06;47.63;;;6.10;;
55114;SDS011;41010;53.252;5.786;2023-01-13T02:13:54;47.88;;;5.88;;
55114;SDS011;41010;53.252;5.786;2023-01-13T02:16:22;35.70;;;5.15;;
55114;SDS011;41010;53.252;5.786;2023-01-13T02:18:52;48.85;;;6.65;;
55114;SDS011;41010;53.252;5.786;2023-01-13T02:24:13;52.95;;;7.05;;
55114;SDS011;41010;53.252;5.786;2023-01-13T02:27:22;45.35;;;6.35;;
55114;SDS011;41010;53.252;5.786;2023-01-13T02:29:59;56.20;;;6.00;;
55114;SDS011;41010;53.252;5.786;2023-01-13T02:32:48;40.45;;;5.63;;
55114;SDS011;41010;53.252;5.786;2023-01-13T02:35:19;46.05;;;7.32;;
55114;SDS011;41010;53.252;5.786;2023-01-13T02:37:47;58.40;;;7.28;;
55114;SDS011;41010;53.252;5.786;2023-01-13T02:40:16;45.42;;;7.20;;
55114;SDS011;41010;53.252;5.786;2023-01-13T02:42:47;44.78;;;6.35;;
55114;SDS011;41010;53.252;5.786;2023-01-13T02:45:35;54.47;;;6.65;;
55114;SDS011;41010;53.252;5.786;2023-01-13T02:48:04;55.28;;;7.15;;
55114;SDS011;41010;53.252;5.786;2023-01-13T02:50:34;49.38;;;7.28;;
55114;SDS011;41010;53.252;5.786;2023-01-13T02:53:04;45.50;;;7.13;;
55114;SDS011;41010;53.252;5.786;2023-01-13T02:55:32;52.00;;;6.50;;
55114;SDS011;41010;53.252;5.786;2023-01-13T02:58:00;57.55;;;6.60;;
55114;SDS011;41010;53.252;5.786;2023-01-13T03:00:29;47.80;;;6.05;;
55114;SDS011;41010;53.252;5.786;2023-01-13T03:02:59;54.90;;;6.65;;
55114;SDS011;41010;53.252;5.786;2023-01-13T03:05:27;56.30;;;7.78;;
55114;SDS011;41010;53.252;5.786;2023-01-13T03:08:00;35.38;;;6.10;;
55114;SDS011;41010;53.252;5.786;2023-01-13T03:10:32;52.75;;;6.32;;
55114;SDS011;41010;53.252;5.786;2023-01-13T03:13:05;48.63;;;6.13;;
55114;SDS011;41010;53.252;5.786;2023-01-13T03:15:37;51.38;;;6.03;;
55114;SDS011;41010;53.252;5.786;2023-01-13T03:18:13;50.13;;;6.82;;
55114;SDS011;41010;53.252;5.786;2023-01-13T03:20:41;37.25;;;5.10;;
55114;SDS011;41010;53.252;5.786;2023-01-13T03:23:11;43.38;;;6.47;;
55114;SDS011;41010;53.252;5.786;2023-01-13T03:25:39;42.92;;;5.95;;
55114;SDS011;41010;53.252;5.786;2023-01-13T03:28:09;38.28;;;5.70;;
55114;SDS011;41010;53.252;5.786;2023-01-13T03:30:39;32.67;;;4.97;;
55114;SDS011;41010;53.252;5.786;2023-01-13T03:33:10;34.20;;;5.53;;
55114;SDS011;41010;53.252;5.786;2023-01-13T03:35:41;31.00;;;6.00;;
55114;SDS011;41010;53.252;5.786;2023-01-13T03:38:10;31.02;;;4.78;;
55114;SDS011;41010;53.252;5.786;2023-01-13T03:40:39;33.15;;;5.05;;
55114;SDS011;41010;53.252;5.786;2023-01-13T03:43:09;36.03;;;5.30;;
55114;SDS011;41010;53.252;5.786;2023-01-13T03:45:55;32.22;;;4.28;;
55114;SDS011;41010;53.252;5.786;2023-01-13T03:48:24;32.03;;;4.10;;
55114;SDS011;41010;53.252;5.786;2023-01-13T03:50:53;30.17;;;3.65;;
55114;SDS011;41010;53.252;5.786;2023-01-13T03:53:22;27.52;;;3.90;;
55114;SDS011;41010;53.252;5.786;2023-01-13T03:55:51;39.95;;;4.88;;
55114;SDS011;41010;53.252;5.786;2023-01-13T03:58:20;33.20;;;4.07;;
55114;SDS011;41010;53.252;5.786;2023-01-13T04:00:52;34.65;;;5.35;;
55114;SDS011;41010;53.252;5.786;2023-01-13T04:03:23;35.83;;;4.72;;
55114;SDS011;41010;53.252;5.786;2023-01-13T04:05:55;37.40;;;4.95;;
55114;SDS011;41010;53.252;5.786;2023-01-13T04:08:24;31.30;;;4.35;;
55114;SDS011;41010;53.252;5.786;2023-01-13T04:10:54;35.05;;;5.18;;
55114;SDS011;41010;53.252;5.786;2023-01-13T04:13:22;40.28;;;4.82;;
55114;SDS011;41010;53.252;5.786;2023-01-13T04:15:51;31.42;;;4.43;;
55114;SDS011;41010;53.252;5.786;2023-01-13T04:18:20;39.58;;;6.10;;
55114;SDS011;41010;53.252;5.786;2023-01-13T04:20:47;40.85;;;4.75;;
55114;SDS011;41010;53.252;5.786;2023-01-13T04:23:17;34.90;;;4.60;;
55114;SDS011;41010;53.252;5.786;2023-01-13T04:25:44;32.40;;;4.20;;
55114;SDS011;41010;53.252;5.786;2023-01-13T04:28:12;23.98;;;3.80;;
55114;SDS011;41010;53.252;5.786;2023-01-13T04:30:39;35.35;;;4.60;;
55114;SDS011;41010;53.252;5.786;2023-01-13T04:33:07;38.92;;;5.50;;
55114;SDS011;41010;53.252;5.786;2023-01-13T04:35:34;33.42;;;5.28;;
55114;SDS011;41010;53.252;5.786;2023-01-13T04:38:02;37.65;;;5.88;;
55114;SDS011;41010;53.252;5.786;2023-01-13T04:40:31;40.30;;;5.28;;
55114;SDS011;41010;53.252;5.786;2023-01-13T04:42:58;33.13;;;5.35;;
55114;SDS011;41010;53.252;5.786;2023-01-13T04:45:25;38.15;;;5.00;;
55114;SDS011;41010;53.252;5.786;2023-01-13T04:47:53;32.05;;;5.43;;
55114;SDS011;41010;53.252;5.786;2023-01-13T04:50:20;29.27;;;4.82;;
55114;SDS011;41010;53.252;5.786;2023-01-13T04:52:47;30.67;;;5.22;;
55114;SDS011;41010;53.252;5.786;2023-01-13T04:55:15;32.17;;;4.88;;
55114;SDS011;41010;53.252;5.786;2023-01-13T04:57:44;32.47;;;5.50;;
55114;SDS011;41010;53.252;5.786;2023-01-13T05:00:12;38.78;;;6.18;;
55114;SDS011;41010;53.252;5.786;2023-01-13T05:02:40;32.28;;;5.35;;
55114;SDS011;41010;53.252;5.786;2023-01-13T05:05:08;37.20;;;6.30;;
55114;SDS011;41010;53.252;5.786;2023-01-13T05:07:35;39.10;;;5.25;;
55114;SDS011;41010;53.252;5.786;2023-01-13T05:10:03;38.63;;;4.85;;
55114;SDS011;41010;53.252;5.786;2023-01-13T05:12:30;28.60;;;4.93;;
55114;SDS011;41010;53.252;5.786;2023-01-13T05:15:16;32.08;;;4.95;;
55114;SDS011;41010;53.252;5.786;2023-01-13T05:18:01;47.00;;;6.45;;
55114;SDS011;41010;53.252;5.786;2023-01-13T05:20:29;34.13;;;4.93;;
55114;SDS011;41010;53.252;5.786;2023-01-13T05:22:56;33.28;;;5.07;;
55114;SDS011;41010;53.252;5.786;2023-01-13T05:25:41;40.55;;;5.07;;
55114;SDS011;41010;53.252;5.786;2023-01-13T05:28:08;35.33;;;4.57;;
55114;SDS011;41010;53.252;5.786;2023-01-13T05:30:38;34.00;;;4.97;;
55114;SDS011;41010;53.252;5.786;2023-01-13T05:33:06;33.42;;;4.45;;
55114;SDS011;41010;53.252;5.786;2023-01-13T05:35:33;28.60;;;4.05;;
55114;SDS011;41010;53.252;5.786;2023-01-13T05:38:01;33.38;;;4.88;;
55114;SDS011;41010;53.252;5.786;2023-01-13T05:40:28;40.55;;;5.05;;
55114;SDS011;41010;53.252;5.786;2023-01-13T05:43:13;27.20;;;4.20;;
55114;SDS011;41010;53.252;5.786;2023-01-13T05:45:55;36.65;;;4.95;;
55114;SDS011;41010;53.252;5.786;2023-01-13T05:48:23;24.55;;;3.67;;
55114;SDS011;41010;53.252;5.786;2023-01-13T05:50:50;32.00;;;4.50;;
55114;SDS011;41010;53.252;5.786;2023-01-13T05:53:18;32.20;;;3.45;;
55114;SDS011;41010;53.252;5.786;2023-01-13T05:55:45;44.00;;;5.63;;
55114;SDS011;41010;53.252;5.786;2023-01-13T05:58:13;40.25;;;4.95;;
55114;SDS011;41010;53.252;5.786;2023-01-13T06:00:41;39.10;;;5.05;;
55114;SDS011;41010;53.252;5.786;2023-01-13T06:03:10;34.85;;;5.20;;
55114;SDS011;41010;53.252;5.786;2023-01-13T06:05:37;34.75;;;4.82;;
55114;SDS011;41010;53.252;5.786;2023-01-13T06:08:05;32.00;;;4.63;;
55114;SDS011;41010;53.252;5.786;2023-01-13T06:10:32;34.53;;;4.38;;
55114;SDS011;41010;53.252;5.786;2023-01-13T06:13:00;40.88;;;5.35;;
55114;SDS011;41010;53.252;5.786;2023-01-13T06:15:27;32.67;;;4.65;;
55114;SDS011;41010;53.252;5.786;2023-01-13T06:17:55;34.78;;;4.53;;
55114;SDS011;41010;53.252;5.786;2023-01-13T06:20:24;42.20;;;4.97;;
55114;SDS011;41010;53.252;5.786;2023-01-13T06:22:51;36.65;;;4.47;;
55114;SDS011;41010;53.252;5.786;2023-01-13T06:25:25;35.60;;;5.13;;
55114;SDS011;41010;53.252;5.786;2023-01-13T06:27:55;37.20;;;5.03;;
55114;SDS011;41010;53.252;5.786;2023-01-13T06:30:22;40.88;;;4.88;;
55114;SDS011;41010;53.252;5.786;2023-01-13T06:32:51;34.40;;;5.05;;
55114;SDS011;41010;53.252;5.786;2023-01-13T06:35:19;37.90;;;5.03;;
55114;SDS011;41010;53.252;5.786;2023-01-13T06:37:49;37.38;;;4.13;;
55114;SDS011;41010;53.252;5.786;2023-01-13T06:40:17;37.25;;;4.50;;
55114;SDS011;41010;53.252;5.786;2023-01-13T06:42:44;38.85;;;5.47;;
55114;SDS011;41010;53.252;5.786;2023-01-13T06:45:29;45.55;;;6.60;;
55114;SDS011;41010;53.252;5.786;2023-01-13T06:47:57;41.38;;;5.60;;
55114;SDS011;41010;53.252;5.786;2023-01-13T06:50:24;41.15;;;5.47;;
55114;SDS011;41010;53.252;5.786;2023-01-13T06:52:53;39.85;;;4.95;;
55114;SDS011;41010;53.252;5.786;2023-01-13T06:55:21;32.60;;;4.30;;
55114;SDS011;41010;53.252;5.786;2023-01-13T06:57:49;37.58;;;5.40;;
55114;SDS011;41010;53.252;5.786;2023-01-13T07:00:16;36.53;;;5.25;;
55114;SDS011;41010;53.252;5.786;2023-01-13T07:02:44;45.40;;;5.15;;
55114;SDS011;41010;53.252;5.786;2023-01-13T07:05:11;42.45;;;5.30;;
55114;SDS011;41010;53.252;5.786;2023-01-13T07:07:38;37.92;;;6.25;;
55114;SDS011;41010;53.252;5.786;2023-01-13T07:10:08;38.83;;;5.00;;
55114;SDS011;41010;53.252;5.786;2023-01-13T07:12:37;36.00;;;5.68;;
55114;SDS011;41010;53.252;5.786;2023-01-13T07:15:18;37.75;;;4.70;;
55114;SDS011;41010;53.252;5.786;2023-01-13T07:17:46;30.35;;;4.93;;
55114;SDS011;41010;53.252;5.786;2023-01-13T07:20:13;42.78;;;5.20;;
55114;SDS011;41010;53.252;5.786;2023-01-13T07:22:41;35.13;;;5.30;;
55114;SDS011;41010;53.252;5.786;2023-01-13T07:25:10;44.78;;;4.47;;
55114;SDS011;41010;53.252;5.786;2023-01-13T07:27:37;40.17;;;5.05;;
55114;SDS011;41010;53.252;5.786;2023-01-13T07:30:05;42.85;;;5.63;;
55114;SDS011;41010;53.252;5.786;2023-01-13T07:32:32;34.80;;;6.57;;
55114;SDS011;41010;53.252;5.786;2023-01-13T07:35:00;37.70;;;4.75;;
55114;SDS011;41010;53.252;5.786;2023-01-13T07:37:30;39.03;;;6.25;;
55114;SDS011;41010;53.252;5.786;2023-01-13T07:39:58;44.13;;;6.15;;
55114;SDS011;41010;53.252;5.786;2023-01-13T07:42:27;52.85;;;6.20;;
55114;SDS011;41010;53.252;5.786;2023-01-13T07:45:11;35.60;;;5.25;;
55114;SDS011;41010;53.252;5.786;2023-01-13T07:47:39;37.83;;;4.82;;
55114;SDS011;41010;53.252;5.786;2023-01-13T07:50:07;34.92;;;4.35;;
55114;SDS011;41010;53.252;5.786;2023-01-13T07:52:34;32.53;;;4.88;;
55114;SDS011;41010;53.252;5.786;2023-01-13T07:55:01;36.35;;;6.22;;
55114;SDS011;41010;53.252;5.786;2023-01-13T07:57:30;36.90;;;4.30;;
55114;SDS011;41010;53.252;5.786;2023-01-13T07:59:57;41.05;;;6.88;;
55114;SDS011;41010;53.252;5.786;2023-01-13T08:02:25;38.08;;;5.78;;
55114;SDS011;41010;53.252;5.786;2023-01-13T08:04:52;37.47;;;5.88;;
55114;SDS011;41010;53.252;5.786;2023-01-13T08:07:19;31.52;;;4.97;;
55114;SDS011;41010;53.252;5.786;2023-01-13T08:09:46;33.40;;;5.38;;
55114;SDS011;41010;53.252;5.786;2023-01-13T08:12:14;44.65;;;6.28;;
55114;SDS011;41010;53.252;5.786;2023-01-13T08:15:00;44.75;;;5.60;;
55114;SDS011;41010;53.252;5.786;2023-01-13T08:17:28;41.67;;;5.75;;
55114;SDS011;41010;53.252;5.786;2023-01-13T08:19:56;41.88;;;6.60;;
55114;SDS011;41010;53.252;5.786;2023-01-13T08:22:23;49.13;;;6.45;;
55114;SDS011;41010;53.252;5.786;2023-01-13T08:24:50;45.20;;;6.13;;
55114;SDS011;41010;53.252;5.786;2023-01-13T08:27:17;45.83;;;5.72;;
55114;SDS011;41010;53.252;5.786;2023-01-13T08:29:45;48.45;;;5.75;;
55114;SDS011;41010;53.252;5.786;2023-01-13T08:32:13;39.28;;;5.32;;
55114;SDS011;41010;53.252;5.786;2023-01-13T08:34:41;49.30;;;6.57;;
55114;SDS011;41010;53.252;5.786;2023-01-13T08:37:08;38.78;;;5.43;;
55114;SDS011;41010;53.252;5.786;2023-01-13T08:39:36;44.05;;;4.97;;
55114;SDS011;41010;53.252;5.786;2023-01-13T08:42:04;38.13;;;6.10;;
55114;SDS011;41010;53.252;5.786;2023-01-13T08:44:31;36.67;;;4.55;;
55114;SDS011;41010;53.252;5.786;2023-01-13T08:46:58;42.80;;;4.32;;
55114;SDS011;41010;53.252;5.786;2023-01-13T08:49:27;46.55;;;5.60;;
55114;SDS011;41010;53.252;5.786;2023-01-13T08:51:54;48.58;;;6.95;;
55114;SDS011;41010;53.252;5.786;2023-01-13T08:54:21;51.28;;;5.93;;
55114;SDS011;41010;53.252;5.786;2023-01-13T08:56:49;42.45;;;5.78;;
55114;SDS011;41010;53.252;5.786;2023-01-13T08:59:17;54.95;;;5.30;;
55114;SDS011;41010;53.252;5.786;2023-01-13T09:01:44;51.95;;;5.88;;
55114;SDS011;41010;53.252;5.786;2023-01-13T09:04:13;52.15;;;5.05;;
55114;SDS011;41010;53.252;5.786;2023-01-13T09:06:42;36.90;;;4.78;;
55114;SDS011;41010;53.252;5.786;2023-01-13T09:09:10;40.85;;;5.25;;
55114;SDS011;41010;53.252;5.786;2023-01-13T09:11:38;41.65;;;4.93;;
55114;SDS011;41010;53.252;5.786;2023-01-13T09:14:24;49.63;;;4.82;;
55114;SDS011;41010;53.252;5.786;2023-01-13T09:16:52;42.25;;;5.95;;
55114;SDS011;41010;53.252;5.786;2023-01-13T09:19:19;43.00;;;5.47;;
55114;SDS011;41010;53.252;5.786;2023-01-13T09:21:48;44.97;;;4.68;;
55114;SDS011;41010;53.252;5.786;2023-01-13T09:24:16;42.55;;;5.38;;
55114;SDS011;41010;53.252;5.786;2023-01-13T09:26:44;40.40;;;4.65;;
55114;SDS011;41010;53.252;5.786;2023-01-13T09:29:11;45.88;;;5.60;;
55114;SDS011;41010;53.252;5.786;2023-01-13T09:31:38;39.63;;;4.70;;
55114;SDS011;41010;53.252;5.786;2023-01-13T09:34:05;55.15;;;7.15;;
55114;SDS011;41010;53.252;5.786;2023-01-13T09:36:52;53.72;;;6.65;;
55114;SDS011;41010;53.252;5.786;2023-01-13T09:39:20;50.28;;;5.35;;
55114;SDS011;41010;53.252;5.786;2023-01-13T09:41:48;38.78;;;5.47;;
55114;SDS011;41010;53.252;5.786;2023-01-13T09:44:38;38.00;;;4.68;;
55114;SDS011;41010;53.252;5.786;2023-01-13T09:47:09;49.33;;;5.30;;
55114;SDS011;41010;53.252;5.786;2023-01-13T09:49:40;40.58;;;7.15;;
55114;SDS011;41010;53.252;5.786;2023-01-13T09:52:11;48.83;;;6.55;;
55114;SDS011;41010;53.252;5.786;2023-01-13T09:54:40;44.53;;;5.53;;
55114;SDS011;41010;53.252;5.786;2023-01-13T09:57:09;41.45;;;4.30;;
55114;SDS011;41010;53.252;5.786;2023-01-13T09:59:36;23.90;;;4.28;;
55114;SDS011;41010;53.252;5.786;2023-01-13T10:02:11;37.03;;;4.57;;
55114;SDS011;41010;53.252;5.786;2023-01-13T10:04:44;40.30;;;5.32;;
55114;SDS011;41010;53.252;5.786;2023-01-13T10:07:28;36.30;;;4.05;;
55114;SDS011;41010;53.252;5.786;2023-01-13T10:09:57;36.20;;;4.40;;
55114;SDS011;41010;53.252;5.786;2023-01-13T10:12:25;24.50;;;4.07;;
55114;SDS011;41010;53.252;5.786;2023-01-13T10:15:12;30.15;;;4.35;;
55114;SDS011;41010;53.252;5.786;2023-01-13T10:17:42;32.38;;;4.57;;
55114;SDS011;41010;53.252;5.786;2023-01-13T10:20:11;31.63;;;4.28;;
55114;SDS011;41010;53.252;5.786;2023-01-13T10:22:50;31.05;;;4.80;;
55114;SDS011;41010;53.252;5.786;2023-01-13T10:25:25;30.83;;;4.70;;
55114;SDS011;41010;53.252;5.786;2023-01-13T10:27:54;31.60;;;3.72;;
55114;SDS011;41010;53.252;5.786;2023-01-13T10:30:23;33.35;;;4.05;;
55114;SDS011;41010;53.252;5.786;2023-01-13T10:32:55;33.70;;;4.78;;
55114;SDS011;41010;53.252;5.786;2023-01-13T10:38:15;26.38;;;3.50;;
55114;SDS011;41010;53.252;5.786;2023-01-13T10:40:46;41.28;;;4.72;;
55114;SDS011;41010;53.252;5.786;2023-01-13T10:43:14;35.50;;;5.00;;
55114;SDS011;41010;53.252;5.786;2023-01-13T10:45:42;29.63;;;4.05;;
55114;SDS011;41010;53.252;5.786;2023-01-13T10:48:11;35.78;;;3.85;;
55114;SDS011;41010;53.252;5.786;2023-01-13T10:50:39;35.55;;;4.43;;
55114;SDS011;41010;53.252;5.786;2023-01-13T10:53:17;29.48;;;4.25;;
55114;SDS011;41010;53.252;5.786;2023-01-13T10:55:56;28.58;;;4.55;;
55114;SDS011;41010;53.252;5.786;2023-01-13T10:58:24;36.13;;;4.07;;
55114;SDS011;41010;53.252;5.786;2023-01-13T11:01:02;33.95;;;4.65;;
55114;SDS011;41010;53.252;5.786;2023-01-13T11:03:34;33.60;;;4.60;;
55114;SDS011;41010;53.252;5.786;2023-01-13T11:06:05;26.33;;;4.38;;
55114;SDS011;41010;53.252;5.786;2023-01-13T11:08:41;28.70;;;3.88;;
55114;SDS011;41010;53.252;5.786;2023-01-13T11:11:26;32.55;;;3.67;;
55114;SDS011;41010;53.252;5.786;2023-01-13T11:13:55;26.23;;;3.53;;
55114;SDS011;41010;53.252;5.786;2023-01-13T11:16:42;25.48;;;3.83;;
55114;SDS011;41010;53.252;5.786;2023-01-13T11:19:12;24.70;;;3.03;;
55114;SDS011;41010;53.252;5.786;2023-01-13T11:21:40;32.55;;;3.97;;
55114;SDS011;41010;53.252;5.786;2023-01-13T11:24:13;34.45;;;3.97;;
55114;SDS011;41010;53.252;5.786;2023-01-13T11:26:44;23.92;;;3.92;;
55114;SDS011;41010;53.252;5.786;2023-01-13T11:29:14;33.70;;;3.67;;
55114;SDS011;41010;53.252;5.786;2023-01-13T11:31:45;31.33;;;4.55;;
55114;SDS011;41010;53.252;5.786;2023-01-13T11:34:16;32.63;;;4.22;;
55114;SDS011;41010;53.252;5.786;2023-01-13T11:36:46;37.70;;;4.30;;
55114;SDS011;41010;53.252;5.786;2023-01-13T11:39:19;31.00;;;3.60;;
55114;SDS011;41010;53.252;5.786;2023-01-13T11:41:51;27.40;;;4.45;;
55114;SDS011;41010;53.252;5.786;2023-01-13T11:44:35;26.35;;;3.45;;
55114;SDS011;41010;53.252;5.786;2023-01-13T11:47:04;29.13;;;4.00;;
55114;SDS011;41010;53.252;5.786;2023-01-13T11:49:31;40.15;;;4.18;;
55114;SDS011;41010;53.252;5.786;2023-01-13T11:51:59;30.00;;;3.38;;
55114;SDS011;41010;53.252;5.786;2023-01-13T12:03:11;26.15;;;3.70;;
55114;SDS011;41010;53.252;5.786;2023-01-13T12:05:43;20.73;;;3.00;;
55114;SDS011;41010;53.252;5.786;2023-01-13T12:08:17;28.67;;;3.88;;
55114;SDS011;41010;53.252;5.786;2023-01-13T12:10:50;27.10;;;3.75;;
55114;SDS011;41010;53.252;5.786;2023-01-13T12:13:23;25.85;;;3.00;;
55114;SDS011;41010;53.252;5.786;2023-01-13T12:15:59;28.83;;;3.72;;
55114;SDS011;41010;53.252;5.786;2023-01-13T12:18:39;27.15;;;3.60;;
55114;SDS011;41010;53.252;5.786;2023-01-13T12:21:14;26.00;;;3.47;;
55114;SDS011;41010;53.252;5.786;2023-01-13T12:23:45;24.60;;;3.83;;
55114;SDS011;41010;53.252;5.786;2023-01-13T12:26:15;22.02;;;2.88;;
55114;SDS011;41010;53.252;5.786;2023-01-13T12:28:43;20.27;;;2.70;;
55114;SDS011;41010;53.252;5.786;2023-01-13T12:31:13;23.80;;;3.67;;
55114;SDS011;41010;53.252;5.786;2023-01-13T12:33:59;26.85;;;3.90;;
55114;SDS011;41010;53.252;5.786;2023-01-13T12:36:28;22.73;;;3.38;;
55114;SDS011;41010;53.252;5.786;2023-01-13T12:38:57;24.20;;;3.28;;
55114;SDS011;41010;53.252;5.786;2023-01-13T12:41:33;21.08;;;2.83;;
55114;SDS011;41010;53.252;5.786;2023-01-13T12:44:23;22.20;;;2.92;;
55114;SDS011;41010;53.252;5.786;2023-01-13T12:46:50;28.20;;;3.00;;
55114;SDS011;41010;53.252;5.786;2023-01-13T12:49:30;18.58;;;3.17;;
55114;SDS011;41010;53.252;5.786;2023-01-13T12:52:00;27.42;;;3.90;;
55114;SDS011;41010;53.252;5.786;2023-01-13T12:57:18;24.85;;;3.53;;
55114;SDS011;41010;53.252;5.786;2023-01-13T13:02:33;20.40;;;3.25;;
55114;SDS011;41010;53.252;5.786;2023-01-13T13:08:02;28.75;;;3.33;;
55114;SDS011;41010;53.252;5.786;2023-01-13T13:10:32;24.38;;;3.47;;
55114;SDS011;41010;53.252;5.786;2023-01-13T13:13:00;19.83;;;3.25;;
55114;SDS011;41010;53.252;5.786;2023-01-13T13:15:43;26.67;;;4.45;;
55114;SDS011;41010;53.252;5.786;2023-01-13T13:18:26;27.33;;;3.13;;
55114;SDS011;41010;53.252;5.786;2023-01-13T13:21:04;34.20;;;3.75;;
55114;SDS011;41010;53.252;5.786;2023-01-13T13:23:38;20.73;;;2.72;;
55114;SDS011;41010;53.252;5.786;2023-01-13T13:28:58;20.65;;;2.65;;
55114;SDS011;41010;53.252;5.786;2023-01-13T13:31:30;27.50;;;3.30;;
55114;SDS011;41010;53.252;5.786;2023-01-13T13:34:11;20.80;;;3.67;;
55114;SDS011;41010;53.252;5.786;2023-01-13T13:36:57;23.63;;;3.88;;
55114;SDS011;41010;53.252;5.786;2023-01-13T13:39:29;25.75;;;3.53;;
55114;SDS011;41010;53.252;5.786;2023-01-13T13:42:15;27.40;;;3.38;;
55114;SDS011;41010;53.252;5.786;2023-01-13T13:45:16;27.05;;;3.00;;
55114;SDS011;41010;53.252;5.786;2023-01-13T13:50:46;25.42;;;3.60;;
55114;SDS011;41010;53.252;5.786;2023-01-13T13:53:13;25.98;;;3.42;;
55114;SDS011;41010;53.252;5.786;2023-01-13T13:55:51;23.63;;;2.97;;
55114;SDS011;41010;53.252;5.786;2023-01-13T13:58:19;31.70;;;3.58;;
55114;SDS011;41010;53.252;5.786;2023-01-13T14:00:46;33.15;;;3.40;;
55114;SDS011;41010;53.252;5.786;2023-01-13T14:03:18;38.22;;;4.50;;
55114;SDS011;41010;53.252;5.786;2023-01-13T14:05:51;27.10;;;4.15;;
55114;SDS011;41010;53.252;5.786;2023-01-13T14:08:19;32.70;;;3.60;;
55114;SDS011;41010;53.252;5.786;2023-01-13T14:10:47;28.08;;;3.20;;
55114;SDS011;41010;53.252;5.786;2023-01-13T14:13:17;26.33;;;4.70;;
55114;SDS011;41010;53.252;5.786;2023-01-13T14:15:45;27.08;;;3.70;;
55114;SDS011;41010;53.252;5.786;2023-01-13T14:18:13;27.80;;;3.45;;
55114;SDS011;41010;53.252;5.786;2023-01-13T14:20:41;20.92;;;2.63;;
55114;SDS011;41010;53.252;5.786;2023-01-13T14:23:13;27.75;;;3.80;;
55114;SDS011;41010;53.252;5.786;2023-01-13T14:25:44;25.00;;;4.10;;
55114;SDS011;41010;53.252;5.786;2023-01-13T14:28:19;19.13;;;2.80;;
55114;SDS011;41010;53.252;5.786;2023-01-13T14:30:47;22.50;;;3.85;;
55114;SDS011;41010;53.252;5.786;2023-01-13T14:33:15;26.00;;;3.70;;
55114;SDS011;41010;53.252;5.786;2023-01-13T14:38:28;24.13;;;3.33;;
55114;SDS011;41010;53.252;5.786;2023-01-13T14:40:56;19.70;;;3.75;;
55114;SDS011;41010;53.252;5.786;2023-01-13T14:43:24;29.70;;;3.70;;
55114;SDS011;41010;53.252;5.786;2023-01-13T14:45:53;30.38;;;3.70;;
55114;SDS011;41010;53.252;5.786;2023-01-13T14:48:21;22.85;;;3.35;;
55114;SDS011;41010;53.252;5.786;2023-01-13T14:50:55;24.52;;;3.97;;
55114;SDS011;41010;53.252;5.786;2023-01-13T14:53:26;29.00;;;3.88;;
55114;SDS011;41010;53.252;5.786;2023-01-13T14:55:55;27.92;;;4.13;;
55114;SDS011;41010;53.252;5.786;2023-01-13T14:58:25;27.30;;;3.75;;
55114;SDS011;41010;53.252;5.786;2023-01-13T15:03:38;30.52;;;3.40;;
55114;SDS011;41010;53.252;5.786;2023-01-13T15:06:18;31.52;;;4.15;;
55114;SDS011;41010;53.252;5.786;2023-01-13T15:08:47;29.10;;;3.67;;
55114;SDS011;41010;53.252;5.786;2023-01-13T15:11:17;31.83;;;3.65;;
55114;SDS011;41010;53.252;5.786;2023-01-13T15:13:49;27.17;;;3.40;;
55114;SDS011;41010;53.252;5.786;2023-01-13T15:16:19;32.55;;;3.42;;
55114;SDS011;41010;53.252;5.786;2023-01-13T15:18:47;28.10;;;3.00;;
55114;SDS011;41010;53.252;5.786;2023-01-13T15:21:15;30.90;;;4.03;;
55114;SDS011;41010;53.252;5.786;2023-01-13T15:23:42;26.95;;;3.00;;
55114;SDS011;41010;53.252;5.786;2023-01-13T15:26:21;28.90;;;4.00;;